createdAt,value
2018-12-22T00:01:27.629Z,5.97
2018-12-22T00:06:45.175Z,5.83
2018-12-22T00:12:02.756Z,5.47
2018-12-22T00:17:20.218Z,5.07
2018-12-22T00:22:37.692Z,5.53
2018-12-22T00:27:55.146Z,5.27
2018-12-22T00:33:12.661Z,7.20
2018-12-22T00:38:30.112Z,5.20
2018-12-22T00:43:47.571Z,5.17
2018-12-22T00:49:05.046Z,6.20
2018-12-22T00:54:22.514Z,5.43
2018-12-22T00:59:39.988Z,5.53
2018-12-22T01:04:57.457Z,5.67
2018-12-22T01:10:14.925Z,5.95
2018-12-22T01:15:32.388Z,5.37
2018-12-22T01:20:49.853Z,6.40
2018-12-22T01:26:07.319Z,5.73
2018-12-22T01:31:25.337Z,6.10
2018-12-22T01:36:43.077Z,5.37
2018-12-22T01:42:00.753Z,5.30
2018-12-22T01:47:18.216Z,5.43
2018-12-22T01:52:35.693Z,5.40
2018-12-22T01:57:53.201Z,6.03
2018-12-22T02:03:10.668Z,5.57
2018-12-22T02:08:28.176Z,5.53
2018-12-22T02:13:45.628Z,6.83
2018-12-22T02:19:03.100Z,5.80
2018-12-22T02:24:20.558Z,6.93
2018-12-22T02:29:38.026Z,7.10
2018-12-22T02:34:55.478Z,6.33
2018-12-22T02:40:12.949Z,6.80
2018-12-22T02:45:31.284Z,6.87
2018-12-22T02:50:48.858Z,5.80
2018-12-22T02:56:06.342Z,6.53
2018-12-22T03:01:23.798Z,6.10
2018-12-22T03:06:41.267Z,6.17
2018-12-22T03:11:59.049Z,6.43
2018-12-22T03:17:16.518Z,5.90
2018-12-22T03:22:33.991Z,5.95
2018-12-22T03:27:51.450Z,5.77
2018-12-22T03:33:08.935Z,5.53
2018-12-22T03:38:26.402Z,5.00
2018-12-22T03:43:43.871Z,5.10
2018-12-22T03:49:01.334Z,5.10
2018-12-22T03:54:18.793Z,4.83
2018-12-22T03:59:36.245Z,5.40
2018-12-22T04:04:53.704Z,5.13
2018-12-22T04:10:11.278Z,5.65
2018-12-22T04:15:28.742Z,5.00
2018-12-22T04:20:46.453Z,4.70
2018-12-22T04:26:03.918Z,4.12
2018-12-22T04:31:21.463Z,3.50
2018-12-22T04:36:38.938Z,3.35
2018-12-22T04:41:56.712Z,4.00
2018-12-22T04:47:14.176Z,2.83
2018-12-22T04:52:31.629Z,2.40
2018-12-22T04:57:49.085Z,2.50
2018-12-22T05:03:06.558Z,2.67
2018-12-22T05:08:24.207Z,2.63
2018-12-22T05:13:41.670Z,2.40
2018-12-22T05:18:59.242Z,2.90
2018-12-22T05:24:16.735Z,2.23
2018-12-22T05:29:34.195Z,3.30
2018-12-22T05:34:51.662Z,2.57
2018-12-22T05:40:09.336Z,2.22
2018-12-22T05:45:26.802Z,3.02
2018-12-22T05:50:44.277Z,3.57
2018-12-22T05:56:01.741Z,3.47
2018-12-22T06:01:19.217Z,3.67
2018-12-22T06:06:36.686Z,4.40
2018-12-22T06:11:54.145Z,4.00
2018-12-22T06:17:11.643Z,3.93
2018-12-22T06:22:29.103Z,3.20
2018-12-22T06:27:46.617Z,3.43
2018-12-22T06:33:04.128Z,3.00
2018-12-22T06:38:21.615Z,1.97
2018-12-22T06:43:39.090Z,1.97
2018-12-22T06:48:56.648Z,1.63
2018-12-22T06:54:14.100Z,1.70
2018-12-22T06:59:31.552Z,1.30
2018-12-22T07:04:49.020Z,1.00
2018-12-22T07:10:08.065Z,1.30
2018-12-22T07:15:25.877Z,1.20
2018-12-22T07:20:43.341Z,1.00
2018-12-22T07:26:00.797Z,1.10
2018-12-22T07:31:18.261Z,1.20
2018-12-22T07:36:35.721Z,1.20
2018-12-22T07:41:53.187Z,1.60
2018-12-22T07:47:10.649Z,1.30
2018-12-22T07:52:28.118Z,1.90
2018-12-22T07:57:45.585Z,1.13
2018-12-22T08:03:03.032Z,1.57
2018-12-22T08:08:20.493Z,1.33
2018-12-22T08:19:02.027Z,1.82
2018-12-22T08:24:19.484Z,1.67
2018-12-22T08:29:36.953Z,1.60
2018-12-22T08:34:54.404Z,1.50
2018-12-22T08:40:11.944Z,1.87
2018-12-22T08:45:29.424Z,2.37
2018-12-22T08:50:46.967Z,2.43
2018-12-22T08:56:04.520Z,2.20
2018-12-22T09:01:21.979Z,2.30
2018-12-22T09:06:39.441Z,2.67
2018-12-22T09:11:56.909Z,2.37
2018-12-22T09:17:14.380Z,2.37
2018-12-22T09:22:31.852Z,2.50
2018-12-22T09:27:49.498Z,2.10
2018-12-22T09:33:07.298Z,2.47
2018-12-22T09:38:24.776Z,2.00
2018-12-22T09:43:42.234Z,2.10
2018-12-22T09:48:59.685Z,1.60
2018-12-22T09:54:17.159Z,1.87
2018-12-22T09:59:34.621Z,1.60
2018-12-22T10:04:52.084Z,1.77
2018-12-22T10:10:11.524Z,1.73
2018-12-22T10:15:28.974Z,1.67
2018-12-22T10:20:46.433Z,1.80
2018-12-22T10:26:03.887Z,1.97
2018-12-22T10:31:21.355Z,1.80
2018-12-22T10:36:38.831Z,2.23
2018-12-22T10:41:56.296Z,1.80
2018-12-22T10:47:13.763Z,2.07
2018-12-22T10:52:31.228Z,2.30
2018-12-22T10:57:49.117Z,2.03
2018-12-22T11:03:06.606Z,2.27
2018-12-22T11:08:24.070Z,1.85
2018-12-22T11:13:41.544Z,1.97
2018-12-22T11:18:59.958Z,3.13
2018-12-22T11:24:17.478Z,2.20
2018-12-22T11:29:34.953Z,2.33
2018-12-22T11:34:52.429Z,3.20
2018-12-22T11:40:09.998Z,2.80
2018-12-22T11:45:27.458Z,2.47
2018-12-22T11:50:45.198Z,2.35
2018-12-22T11:56:02.702Z,2.60
2018-12-22T12:01:20.182Z,2.20
2018-12-22T12:06:37.651Z,2.80
2018-12-22T12:11:55.121Z,2.33
2018-12-22T12:17:13.144Z,2.30
2018-12-22T12:22:30.761Z,3.27
2018-12-22T12:27:48.266Z,2.90
2018-12-22T12:33:05.788Z,3.90
2018-12-22T12:38:23.403Z,4.60
2018-12-22T12:43:40.981Z,4.70
2018-12-22T12:48:58.597Z,3.73
2018-12-22T12:54:16.304Z,4.05
2018-12-22T12:59:33.893Z,3.83
2018-12-22T13:04:51.456Z,4.17
2018-12-22T13:10:11.454Z,4.17
2018-12-22T13:15:28.907Z,3.73
2018-12-22T13:20:46.360Z,4.07
2018-12-22T13:26:03.837Z,3.60
2018-12-22T13:31:21.457Z,2.53
2018-12-22T13:36:38.905Z,2.50
2018-12-22T13:41:56.552Z,1.90
2018-12-22T13:47:14.182Z,1.90
2018-12-22T13:52:31.648Z,1.30
2018-12-22T13:57:49.109Z,1.60
2018-12-22T14:03:07.887Z,2.20
2018-12-22T14:08:25.481Z,3.00
2018-12-22T14:13:42.933Z,3.20
2018-12-22T14:19:00.489Z,1.53
2018-12-22T14:24:19.286Z,1.40
2018-12-22T14:29:37.031Z,1.50
2018-12-22T14:34:54.488Z,1.50
2018-12-22T14:40:12.450Z,1.93
2018-12-22T14:45:29.913Z,1.60
2018-12-22T14:50:47.364Z,2.23
2018-12-22T14:56:05.362Z,2.50
2018-12-22T15:01:22.920Z,4.10
2018-12-22T15:06:40.419Z,3.30
2018-12-22T15:11:57.888Z,3.07
2018-12-22T15:17:15.355Z,3.23
2018-12-22T15:22:32.913Z,3.63
2018-12-22T15:27:50.501Z,3.47
2018-12-22T15:33:07.965Z,2.87
2018-12-22T15:38:25.917Z,2.33
2018-12-22T15:43:43.425Z,2.83
2018-12-22T15:49:00.897Z,2.97
2018-12-22T15:54:18.380Z,4.83
2018-12-22T15:59:36.169Z,3.80
2018-12-22T16:04:53.851Z,3.43
2018-12-22T16:10:17.174Z,4.62
2018-12-22T16:15:34.713Z,3.47
2018-12-22T16:20:52.243Z,2.40
2018-12-22T16:26:10.434Z,2.77
2018-12-22T16:31:28.280Z,3.27
2018-12-22T16:36:46.035Z,2.53
2018-12-22T16:42:03.558Z,2.20
2018-12-22T16:47:21.025Z,2.52
2018-12-22T16:52:39.036Z,2.67
2018-12-22T16:58:14.832Z,2.47
2018-12-22T17:03:32.413Z,2.70
2018-12-22T17:08:50.519Z,2.70
2018-12-22T17:14:08.405Z,3.03
2018-12-22T17:19:25.861Z,2.97
2018-12-22T17:24:43.420Z,3.20
2018-12-22T17:30:01.985Z,2.80
2018-12-22T17:35:19.628Z,3.83
2018-12-22T17:40:37.441Z,4.17
2018-12-22T17:45:54.963Z,3.50
2018-12-22T17:51:12.458Z,3.50
2018-12-22T17:56:30.023Z,3.80
2018-12-22T18:01:48.186Z,3.87
2018-12-22T18:07:05.671Z,3.90
2018-12-22T18:12:23.171Z,4.13
2018-12-22T18:17:40.633Z,3.00
2018-12-22T18:22:58.121Z,3.17
2018-12-22T18:28:15.579Z,2.90
2018-12-22T18:33:36.065Z,3.95
2018-12-22T18:38:52.894Z,3.87
2018-12-22T18:44:11.382Z,3.40
2018-12-22T18:49:28.861Z,3.97
2018-12-22T18:54:46.342Z,3.50
2018-12-22T19:00:12.438Z,4.57
2018-12-22T19:05:29.976Z,3.47
2018-12-22T19:10:47.658Z,3.60
2018-12-22T19:16:05.144Z,3.33
2018-12-22T19:21:22.833Z,3.43
2018-12-22T19:26:40.322Z,4.17
2018-12-22T19:31:57.803Z,4.00
2018-12-22T19:37:15.535Z,4.47
2018-12-22T19:42:33.001Z,4.63
2018-12-22T19:47:50.858Z,4.20
2018-12-22T19:53:08.461Z,3.83
2018-12-22T19:58:26.083Z,2.73
2018-12-22T20:03:43.547Z,2.00
2018-12-22T20:09:01.022Z,1.80
2018-12-22T20:14:18.499Z,2.53
2018-12-22T20:19:36.000Z,2.60
2018-12-22T20:24:53.469Z,3.73
2018-12-22T20:30:11.245Z,3.50
2018-12-22T20:35:28.738Z,3.47
2018-12-22T20:40:46.209Z,3.97
2018-12-22T20:46:03.705Z,4.57
2018-12-22T20:51:21.505Z,3.73
2018-12-22T20:56:38.970Z,4.20
2018-12-22T21:01:56.434Z,4.80
2018-12-22T21:07:13.894Z,4.17
2018-12-22T21:12:31.368Z,4.17
2018-12-22T21:17:48.907Z,5.70
2018-12-22T21:23:06.391Z,4.70
2018-12-22T21:28:23.931Z,6.40
2018-12-22T21:33:41.769Z,5.23
2018-12-22T21:38:59.245Z,4.60
2018-12-22T21:44:16.950Z,4.93
2018-12-22T21:49:34.421Z,4.87
2018-12-22T21:54:51.876Z,5.30
2018-12-22T22:00:09.355Z,4.60
2018-12-22T22:05:26.851Z,5.42
2018-12-22T22:10:44.334Z,4.80
2018-12-22T22:16:01.811Z,6.17
2018-12-22T22:21:19.308Z,5.53
2018-12-22T22:26:36.808Z,5.73
2018-12-22T22:31:54.289Z,6.47
2018-12-22T22:37:11.757Z,5.60
2018-12-22T22:42:29.219Z,4.83
2018-12-22T22:47:46.701Z,5.67
2018-12-22T22:53:04.253Z,6.67
2018-12-22T22:58:21.973Z,6.80
2018-12-22T23:03:39.997Z,6.63
2018-12-22T23:08:57.505Z,8.97
2018-12-22T23:14:15.138Z,4.97
2018-12-22T23:19:32.594Z,5.70
2018-12-22T23:24:50.181Z,5.40
2018-12-22T23:30:07.820Z,6.10
2018-12-22T23:35:25.538Z,6.27
2018-12-22T23:40:43.012Z,5.73
2018-12-22T23:46:00.482Z,6.27
2018-12-22T23:51:17.946Z,6.23
2018-12-22T23:56:35.410Z,5.63
